Time;durP1;ratioP1;P1;durP2;ratioP2;P2;SDS_P1;SDS_P2;PMS_P1;PMS_P2;Temp;Humidity;BMP_temperature;BMP_pressure;BME280_temperature;BME280_humidity;BME280_pressure;Samples;Min_cycle;Max_cycle;Signal;HPM_P1;HPM_P2
2024/04/09 00:02:24;;;;;;;126.07;119.38;;;;;;;;;;5408271;26;20424;-59
2024/04/09 00:04:51;;;;;;;105.57;99.88;;;;;;;;;;5407894;26;20058;-59
2024/04/09 00:07:16;;;;;;;105.20;99.65;;;;;;;;;;5401359;26;20011;-58
2024/04/09 00:09:44;;;;;;;146.27;138.93;;;;;;;;;;5407668;26;20015;-59
2024/04/09 00:12:11;;;;;;;139.57;132.63;;;;;;;;;;5410945;26;20085;-59
2024/04/09 00:14:37;;;;;;;144.93;137.68;;;;;;;;;;5409608;26;20019;-59
2024/04/09 00:17:05;;;;;;;153.93;146.23;;;;;;;;;;5403477;26;20003;-59
2024/04/09 00:19:31;;;;;;;189.98;180.43;;;;;;;;;;5407308;26;20018;-59
2024/04/09 00:21:57;;;;;;;217.00;206.27;;;;;;;;;;5414369;26;20350;-59
2024/04/09 00:24:22;;;;;;;202.77;192.65;;;;;;;;;;5406859;26;20056;-59
2024/04/09 00:26:48;;;;;;;191.27;181.63;;;;;;;;;;5407909;26;20004;-59
2024/04/09 00:29:13;;;;;;;196.20;186.45;;;;;;;;;;5406800;26;20153;-59
2024/04/09 00:31:39;;;;;;;213.18;201.98;;;;;;;;;;5409167;26;19999;-59
2024/04/09 00:34:05;;;;;;;199.40;189.43;;;;;;;;;;5411180;26;20011;-59
2024/04/09 00:36:33;;;;;;;215.23;204.13;;;;;;;;;;5411587;26;20003;-59
2024/04/09 00:39:00;;;;;;;151.68;144.00;;;;;;;;;;5408017;26;19999;-59
2024/04/09 00:41:26;;;;;;;164.27;155.98;;;;;;;;;;5412977;26;20011;-59
2024/04/09 00:43:51;;;;;;;198.27;188.32;;;;;;;;;;5406365;26;20015;-58
2024/04/09 00:46:18;;;;;;;166.75;158.32;;;;;;;;;;5413399;26;20038;-58
2024/04/09 00:48:44;;;;;;;119.35;113.40;;;;;;;;;;5409776;26;20021;-58
2024/04/09 00:51:13;;;;;;;140.32;133.23;;;;;;;;;;5405741;26;20108;-58
2024/04/09 00:53:40;;;;;;;140.48;133.25;;;;;;;;;;5409395;26;20321;-59
2024/04/09 00:56:08;;;;;;;124.20;117.72;;;;;;;;;;5407496;26;20003;-59
2024/04/09 00:58:34;;;;;;;152.40;144.77;;;;;;;;;;5410260;26;20008;-59
2024/04/09 01:01:00;;;;;;;101.80;96.70;;;;;;;;;;5408911;26;20424;-58
2024/04/09 01:03:26;;;;;;;114.13;108.40;;;;;;;;;;5411198;26;20495;-59
2024/04/09 01:05:52;;;;;;;113.07;105.72;;;;;;;;;;5406186;26;20029;-58
2024/04/09 01:08:17;;;;;;;106.45;100.95;;;;;;;;;;5408273;26;20010;-59
2024/04/09 01:10:43;;;;;;;110.45;104.85;;;;;;;;;;5404547;26;20056;-59
2024/04/09 01:13:08;;;;;;;95.60;90.55;;;;;;;;;;5405453;26;20511;-59
2024/04/09 01:15:33;;;;;;;108.93;103.40;;;;;;;;;;5406920;26;20025;-59
2024/04/09 01:17:59;;;;;;;116.60;110.50;;;;;;;;;;5412426;26;20363;-59
2024/04/09 01:20:24;;;;;;;92.65;87.80;;;;;;;;;;5410483;26;20037;-59
2024/04/09 01:22:50;;;;;;;71.70;68.10;;;;;;;;;;5422254;26;20018;-58
2024/04/09 01:25:15;;;;;;;68.30;64.75;;;;;;;;;;5407980;26;20035;-59
2024/04/09 01:27:41;;;;;;;66.63;62.75;;;;;;;;;;5408226;26;20507;-59
2024/04/09 01:30:08;;;;;;;83.68;79.53;;;;;;;;;;5412471;26;20085;-59
2024/04/09 01:32:34;;;;;;;78.78;74.57;;;;;;;;;;5411288;26;20015;-58
2024/04/09 01:35:00;;;;;;;84.70;80.35;;;;;;;;;;5405200;26;20089;-59
2024/04/09 01:37:27;;;;;;;73.57;69.85;;;;;;;;;;5407040;26;20340;-57
2024/04/09 01:39:52;;;;;;;86.68;82.20;;;;;;;;;;5406973;26;20458;-59
2024/04/09 01:42:17;;;;;;;80.07;75.90;;;;;;;;;;5407068;26;20007;-58
2024/04/09 01:44:44;;;;;;;86.18;81.85;;;;;;;;;;5407329;26;20012;-58
2024/04/09 01:47:10;;;;;;;80.55;76.53;;;;;;;;;;5409254;26;20008;-59
2024/04/09 01:49:35;;;;;;;88.45;83.68;;;;;;;;;;5407690;26;20483;-58
2024/04/09 01:52:02;;;;;;;90.93;86.32;;;;;;;;;;5409512;26;20313;-58
2024/04/09 01:54:27;;;;;;;93.07;88.28;;;;;;;;;;5408732;26;20015;-59
2024/04/09 01:56:52;;;;;;;102.90;97.63;;;;;;;;;;5406596;26;20043;-58
2024/04/09 01:59:18;;;;;;;105.03;99.70;;;;;;;;;;5407858;26;20445;-59
2024/04/09 02:01:44;;;;;;;103.20;98.00;;;;;;;;;;5407585;26;20429;-59
2024/04/09 02:04:11;;;;;;;103.03;97.63;;;;;;;;;;5412361;26;20021;-59
2024/04/09 02:06:36;;;;;;;109.38;103.80;;;;;;;;;;5405342;26;20026;-59
2024/04/09 02:09:02;;;;;;;109.25;103.47;;;;;;;;;;5411083;26;20023;-59
2024/04/09 02:11:31;;;;;;;107.07;101.60;;;;;;;;;;5379741;26;20026;-59
2024/04/09 02:13:57;;;;;;;116.40;110.40;;;;;;;;;;5406439;26;20053;-58
2024/04/09 02:16:22;;;;;;;123.72;117.47;;;;;;;;;;5409574;26;20007;-59
2024/04/09 02:18:48;;;;;;;110.57;104.82;;;;;;;;;;5405630;26;20003;-59
2024/04/09 02:21:15;;;;;;;109.93;104.20;;;;;;;;;;5405343;26;20004;-58
2024/04/09 02:23:41;;;;;;;121.93;115.22;;;;;;;;;;5410565;26;20428;-59
2024/04/09 02:26:07;;;;;;;109.18;103.15;;;;;;;;;;5409465;26;20015;-58
2024/04/09 02:28:33;;;;;;;117.22;111.15;;;;;;;;;;5414575;26;20417;-59
2024/04/09 02:30:59;;;;;;;130.63;122.55;;;;;;;;;;5384027;26;20632;-59
2024/04/09 02:33:24;;;;;;;113.53;107.38;;;;;;;;;;5408875;26;20003;-59
2024/04/09 02:35:58;;;;;;;115.38;109.45;;;;;;;;;;5411891;26;20547;-58
2024/04/09 02:38:25;;;;;;;136.38;128.98;;;;;;;;;;5414725;26;20011;-58
2024/04/09 02:40:50;;;;;;;136.80;129.85;;;;;;;;;;5410873;26;20333;-59
2024/04/09 02:43:16;;;;;;;158.55;150.45;;;;;;;;;;5407357;26;20003;-60
2024/04/09 02:45:42;;;;;;;142.43;135.15;;;;;;;;;;5413796;26;20015;-59
2024/04/09 02:48:07;;;;;;;156.88;148.85;;;;;;;;;;5410001;26;20097;-59
2024/04/09 02:50:32;;;;;;;170.15;161.57;;;;;;;;;;5406367;26;20039;-59
2024/04/09 02:52:58;;;;;;;170.45;161.95;;;;;;;;;;5409684;26;20023;-59
2024/04/09 02:55:24;;;;;;;175.55;166.82;;;;;;;;;;5410172;26;20019;-59
2024/04/09 02:57:49;;;;;;;185.82;176.65;;;;;;;;;;5409016;26;20011;-59
2024/04/09 03:00:21;;;;;;;177.80;168.93;;;;;;;;;;5410244;26;20008;-58
2024/04/09 03:02:53;;;;;;;179.02;170.13;;;;;;;;;;5412178;26;20015;-59
2024/04/09 03:05:30;;;;;;;172.50;163.85;;;;;;;;;;5410088;26;20008;-59
2024/04/09 03:07:55;;;;;;;174.65;166.00;;;;;;;;;;5410847;26;20357;-59
2024/04/09 03:10:21;;;;;;;186.98;177.32;;;;;;;;;;5409989;26;20607;-59
2024/04/09 03:12:47;;;;;;;182.80;173.38;;;;;;;;;;5407113;26;20018;-59
2024/04/09 03:15:12;;;;;;;183.45;174.25;;;;;;;;;;5416688;26;20015;-59
2024/04/09 03:17:40;;;;;;;177.60;168.15;;;;;;;;;;5414078;26;20026;-59
2024/04/09 03:20:07;;;;;;;180.50;171.52;;;;;;;;;;5410064;26;20035;-59
2024/04/09 03:22:32;;;;;;;189.52;179.30;;;;;;;;;;5414699;26;20024;-58
2024/04/09 03:24:57;;;;;;;194.55;184.40;;;;;;;;;;5413792;26;21054;-59
2024/04/09 03:27:23;;;;;;;179.82;170.80;;;;;;;;;;5407199;26;20433;-58
2024/04/09 03:29:48;;;;;;;183.70;174.27;;;;;;;;;;5414745;26;20433;-58
2024/04/09 03:32:14;;;;;;;162.98;154.88;;;;;;;;;;5414969;26;20034;-58
2024/04/09 03:34:39;;;;;;;155.75;147.88;;;;;;;;;;5405240;26;20007;-59
2024/04/09 03:37:04;;;;;;;143.95;136.70;;;;;;;;;;5408567;26;20007;-59
2024/04/09 03:39:30;;;;;;;157.00;148.48;;;;;;;;;;5407408;26;20507;-58
2024/04/09 03:41:55;;;;;;;157.73;149.57;;;;;;;;;;5410166;26;20412;-58
2024/04/09 03:44:20;;;;;;;145.70;138.35;;;;;;;;;;5412081;26;20360;-59
2024/04/09 03:46:46;;;;;;;152.10;144.23;;;;;;;;;;5411943;26;20068;-58
2024/04/09 03:49:11;;;;;;;161.63;153.52;;;;;;;;;;5415448;26;20315;-58
2024/04/09 03:51:36;;;;;;;146.57;139.27;;;;;;;;;;5410261;26;20003;-59
2024/04/09 03:54:02;;;;;;;144.50;137.20;;;;;;;;;;5413769;26;20015;-58
2024/04/09 03:56:27;;;;;;;147.18;139.80;;;;;;;;;;5414437;26;20015;-58
2024/04/09 03:58:52;;;;;;;146.48;138.90;;;;;;;;;;5407846;26;20441;-58
2024/04/09 04:01:18;;;;;;;141.85;134.73;;;;;;;;;;5407676;26;20129;-59
2024/04/09 04:03:48;;;;;;;142.73;135.48;;;;;;;;;;5416351;26;20026;-59
2024/04/09 04:06:13;;;;;;;133.23;126.57;;;;;;;;;;5395517;26;20992;-59
2024/04/09 04:08:40;;;;;;;129.70;123.18;;;;;;;;;;5415496;26;20065;-58
2024/04/09 04:11:07;;;;;;;125.68;119.45;;;;;;;;;;5408319;26;20022;-59
2024/04/09 04:13:34;;;;;;;108.63;102.80;;;;;;;;;;5411655;26;20014;-59
2024/04/09 04:16:06;;;;;;;82.22;77.47;;;;;;;;;;5404088;26;20443;-58
2024/04/09 04:18:37;;;;;;;58.45;55.35;;;;;;;;;;5404335;26;20015;-59
2024/04/09 04:21:04;;;;;;;50.50;47.92;;;;;;;;;;5410453;26;20318;-59
2024/04/09 04:23:30;;;;;;;46.22;43.47;;;;;;;;;;5407779;26;20414;-58
2024/04/09 04:26:02;;;;;;;48.95;46.15;;;;;;;;;;5413445;26;20054;-58
2024/04/09 04:28:38;;;;;;;62.03;58.08;;;;;;;;;;5407009;26;20040;-59
2024/04/09 04:31:06;;;;;;;56.60;53.65;;;;;;;;;;5409670;26;20320;-58
2024/04/09 04:33:31;;;;;;;82.38;77.63;;;;;;;;;;5410179;26;20011;-58
2024/04/09 04:35:57;;;;;;;91.85;86.93;;;;;;;;;;5410762;26;20014;-58
2024/04/09 04:38:22;;;;;;;102.97;97.63;;;;;;;;;;5412545;26;20007;-59
2024/04/09 04:40:49;;;;;;;116.80;111.00;;;;;;;;;;5408316;26;20015;-58
2024/04/09 04:43:15;;;;;;;109.82;104.22;;;;;;;;;;5411261;26;20034;-58
2024/04/09 04:45:42;;;;;;;137.07;130.02;;;;;;;;;;5408040;26;20043;-58
2024/04/09 04:48:07;;;;;;;130.10;123.65;;;;;;;;;;5409940;26;20079;-59
2024/04/09 04:50:33;;;;;;;139.55;132.48;;;;;;;;;;5406834;26;20019;-59
2024/04/09 04:52:58;;;;;;;128.45;121.13;;;;;;;;;;5411033;26;20017;-58
2024/04/09 04:55:23;;;;;;;162.23;153.75;;;;;;;;;;5410517;26;20011;-59
2024/04/09 04:57:49;;;;;;;170.98;162.52;;;;;;;;;;5411737;26;20022;-59
2024/04/09 05:00:14;;;;;;;167.32;158.82;;;;;;;;;;5404346;26;20020;-59
2024/04/09 05:02:40;;;;;;;180.77;171.13;;;;;;;;;;5407710;26;20035;-59
2024/04/09 05:05:07;;;;;;;183.55;174.32;;;;;;;;;;5403897;26;20085;-59
2024/04/09 05:07:33;;;;;;;172.25;163.35;;;;;;;;;;5409041;26;20003;-58
2024/04/09 05:09:59;;;;;;;191.95;182.23;;;;;;;;;;5406882;26;20015;-59
2024/04/09 05:12:25;;;;;;;177.43;168.60;;;;;;;;;;5409683;26;20015;-58
2024/04/09 05:14:50;;;;;;;156.38;148.50;;;;;;;;;;5411357;26;20382;-58
2024/04/09 05:17:16;;;;;;;142.63;135.48;;;;;;;;;;5406034;26;20284;-59
2024/04/09 05:19:42;;;;;;;165.93;155.90;;;;;;;;;;5408011;26;20031;-59
2024/04/09 05:22:09;;;;;;;166.95;157.68;;;;;;;;;;5409317;26;20072;-59
2024/04/09 05:24:38;;;;;;;158.63;150.52;;;;;;;;;;5410318;26;20000;-59
2024/04/09 05:27:05;;;;;;;169.85;161.40;;;;;;;;;;5405166;26;20027;-59
2024/04/09 05:29:30;;;;;;;160.75;152.70;;;;;;;;;;5408586;26;20025;-59
2024/04/09 05:31:55;;;;;;;169.02;160.57;;;;;;;;;;5412399;26;20013;-59
2024/04/09 05:34:20;;;;;;;157.77;149.50;;;;;;;;;;5401846;26;20000;-59
2024/04/09 05:36:46;;;;;;;166.80;157.55;;;;;;;;;;5404329;26;20003;-59
2024/04/09 05:39:12;;;;;;;162.20;154.15;;;;;;;;;;5403554;26;20004;-59
2024/04/09 05:41:37;;;;;;;132.85;126.22;;;;;;;;;;5403332;26;20039;-59
2024/04/09 05:44:03;;;;;;;128.27;120.68;;;;;;;;;;5402908;26;20344;-58
2024/04/09 05:46:28;;;;;;;136.55;129.73;;;;;;;;;;5413496;26;20015;-59
2024/04/09 05:48:53;;;;;;;159.55;151.32;;;;;;;;;;5405162;26;20051;-59
2024/04/09 05:51:19;;;;;;;150.07;142.27;;;;;;;;;;5400289;26;20015;-59
2024/04/09 05:53:44;;;;;;;150.00;142.50;;;;;;;;;;5407004;26;20018;-59
2024/04/09 05:56:09;;;;;;;152.10;144.50;;;;;;;;;;5403537;26;20400;-58
2024/04/09 05:58:35;;;;;;;131.07;124.50;;;;;;;;;;5412403;26;20329;-59
2024/04/09 06:01:00;;;;;;;108.05;102.60;;;;;;;;;;5410348;26;20015;-59
2024/04/09 06:03:27;;;;;;;114.82;109.15;;;;;;;;;;5415624;26;20023;-59
2024/04/09 06:05:55;;;;;;;105.00;99.82;;;;;;;;;;5409303;26;20023;-59
2024/04/09 06:08:20;;;;;;;107.47;102.00;;;;;;;;;;5413104;26;20426;-59
2024/04/09 06:10:46;;;;;;;99.07;94.18;;;;;;;;;;5412883;26;20026;-59
2024/04/09 06:13:11;;;;;;;100.88;95.82;;;;;;;;;;5409397;26;20416;-59
2024/04/09 06:15:37;;;;;;;112.68;107.05;;;;;;;;;;5410474;26;20003;-59
2024/04/09 06:18:03;;;;;;;108.10;102.78;;;;;;;;;;5409062;26;20393;-59
2024/04/09 06:20:28;;;;;;;93.43;88.82;;;;;;;;;;5409836;26;20021;-59
2024/04/09 06:22:54;;;;;;;90.85;86.35;;;;;;;;;;5410474;26;20466;-59
2024/04/09 06:25:19;;;;;;;69.35;65.50;;;;;;;;;;5414798;26;20013;-59
2024/04/09 06:27:45;;;;;;;66.07;62.65;;;;;;;;;;5413416;26;20007;-59
2024/04/09 06:30:10;;;;;;;55.60;52.80;;;;;;;;;;5412436;26;20030;-60
2024/04/09 06:32:35;;;;;;;54.25;51.47;;;;;;;;;;5415674;26;20507;-59
2024/04/09 06:35:01;;;;;;;57.50;54.60;;;;;;;;;;5409196;26;20059;-59
2024/04/09 06:37:27;;;;;;;76.78;72.97;;;;;;;;;;5410206;26;20022;-59
2024/04/09 06:39:52;;;;;;;69.68;66.20;;;;;;;;;;5410364;26;20015;-59
2024/04/09 06:42:18;;;;;;;81.28;77.25;;;;;;;;;;5406077;26;20011;-59
2024/04/09 06:44:43;;;;;;;77.65;73.75;;;;;;;;;;5410325;26;20492;-59
2024/04/09 06:47:08;;;;;;;92.20;87.65;;;;;;;;;;5407793;26;20092;-59
2024/04/09 06:49:34;;;;;;;94.85;89.78;;;;;;;;;;5410077;26;20030;-59
2024/04/09 06:51:59;;;;;;;82.07;77.97;;;;;;;;;;5409189;26;20000;-59
2024/04/09 06:54:25;;;;;;;98.40;93.45;;;;;;;;;;5405441;26;20077;-59
2024/04/09 06:56:50;;;;;;;101.68;96.65;;;;;;;;;;5412788;26;20021;-59
2024/04/09 06:59:17;;;;;;;108.65;103.28;;;;;;;;;;5406123;26;20011;-59
2024/04/09 07:01:42;;;;;;;123.30;117.20;;;;;;;;;;5410748;26;20034;-59
2024/04/09 07:04:08;;;;;;;123.70;117.32;;;;;;;;;;5412689;26;20007;-59
2024/04/09 07:06:33;;;;;;;115.32;109.65;;;;;;;;;;5408644;26;20034;-59
2024/04/09 07:09:02;;;;;;;128.32;121.32;;;;;;;;;;5408445;26;20012;-59
2024/04/09 07:11:28;;;;;;;130.68;124.13;;;;;;;;;;5400752;26;20420;-59
2024/04/09 07:13:53;;;;;;;132.07;125.47;;;;;;;;;;5408616;26;20007;-59
2024/04/09 07:16:19;;;;;;;146.93;139.65;;;;;;;;;;5413042;26;20011;-58
2024/04/09 07:18:46;;;;;;;134.55;127.85;;;;;;;;;;5408246;26;20089;-59
2024/04/09 07:21:11;;;;;;;115.60;109.85;;;;;;;;;;5405675;26;20535;-58
2024/04/09 07:23:37;;;;;;;116.75;110.97;;;;;;;;;;5413089;26;20015;-59
2024/04/09 07:26:02;;;;;;;134.57;127.90;;;;;;;;;;5412884;26;20622;-59
2024/04/09 07:28:28;;;;;;;134.45;127.80;;;;;;;;;;5409832;26;20059;-59
2024/04/09 07:30:53;;;;;;;122.80;116.70;;;;;;;;;;5411576;26;20008;-59
2024/04/09 07:33:19;;;;;;;126.85;120.50;;;;;;;;;;5408664;26;20011;-59
2024/04/09 07:35:45;;;;;;;120.47;114.53;;;;;;;;;;5408412;26;20023;-59
2024/04/09 07:38:10;;;;;;;143.80;136.70;;;;;;;;;;5407389;26;20683;-58
2024/04/09 07:40:36;;;;;;;131.90;125.35;;;;;;;;;;5411047;26;20023;-59
2024/04/09 07:43:01;;;;;;;135.45;128.70;;;;;;;;;;5411919;26;20412;-59
2024/04/09 07:45:26;;;;;;;138.02;131.15;;;;;;;;;;5407717;26;20590;-59
2024/04/09 07:47:53;;;;;;;127.70;121.38;;;;;;;;;;5408201;26;20325;-59
2024/04/09 07:50:19;;;;;;;120.15;114.20;;;;;;;;;;5406934;26;20486;-59
2024/04/09 07:52:44;;;;;;;107.07;101.78;;;;;;;;;;5410864;26;19999;-58
2024/04/09 07:55:11;;;;;;;103.38;98.30;;;;;;;;;;5407755;26;20012;-59
2024/04/09 07:57:40;;;;;;;74.03;70.32;;;;;;;;;;5409649;26;20453;-59
2024/04/09 08:00:13;;;;;;;71.95;68.35;;;;;;;;;;5411441;26;20018;-59
2024/04/09 08:02:43;;;;;;;45.30;43.00;;;;;;;;;;5406255;26;20429;-59
2024/04/09 08:05:12;;;;;;;42.22;40.10;;;;;;;;;;5409129;26;20182;-59
2024/04/09 08:07:39;;;;;;;39.03;37.03;;;;;;;;;;5410497;26;20012;-59
2024/04/09 08:10:11;;;;;;;44.53;42.28;;;;;;;;;;5411851;26;20072;-59
2024/04/09 08:12:36;;;;;;;56.30;53.47;;;;;;;;;;5406565;26;20313;-58
2024/04/09 08:15:02;;;;;;;44.50;42.25;;;;;;;;;;5407178;26;20007;-59
2024/04/09 08:17:27;;;;;;;70.20;66.68;;;;;;;;;;5409114;26;20008;-59
2024/04/09 08:19:54;;;;;;;63.13;59.97;;;;;;;;;;5407658;26;20437;-59
2024/04/09 08:22:19;;;;;;;67.03;63.67;;;;;;;;;;5408845;26;20010;-59
2024/04/09 08:24:45;;;;;;;55.95;53.15;;;;;;;;;;5408474;26;20019;-59
2024/04/09 08:27:10;;;;;;;44.47;42.20;;;;;;;;;;5404414;26;20004;-59
2024/04/09 08:29:35;;;;;;;38.75;36.63;;;;;;;;;;5403203;26;20030;-59
2024/04/09 08:32:01;;;;;;;36.63;34.30;;;;;;;;;;5403284;26;20004;-58
2024/04/09 08:34:26;;;;;;;40.88;38.80;;;;;;;;;;5405912;26;20019;-59
2024/04/09 08:36:52;;;;;;;57.60;54.72;;;;;;;;;;5407861;26;20011;-58
2024/04/09 08:39:17;;;;;;;36.45;34.58;;;;;;;;;;5404878;26;20289;-59
2024/04/09 08:41:42;;;;;;;43.30;41.13;;;;;;;;;;5411486;26;20003;-59
2024/04/09 08:44:10;;;;;;;44.42;42.17;;;;;;;;;;5409910;26;20004;-59
2024/04/09 08:46:36;;;;;;;64.40;61.00;;;;;;;;;;5405523;26;20484;-59
2024/04/09 08:49:02;;;;;;;43.30;41.10;;;;;;;;;;5412328;26;20035;-59
2024/04/09 08:51:28;;;;;;;45.53;43.22;;;;;;;;;;5408309;26;20027;-59
2024/04/09 08:53:53;;;;;;;53.90;51.20;;;;;;;;;;5408599;26;20083;-59
2024/04/09 08:56:19;;;;;;;64.25;61.05;;;;;;;;;;5408901;26;20429;-59
2024/04/09 08:58:45;;;;;;;97.93;92.45;;;;;;;;;;5414021;26;20096;-59
2024/04/09 09:01:26;;;;;;;112.28;106.75;;;;;;;;;;5411466;26;20022;-59
2024/04/09 09:03:51;;;;;;;108.43;103.07;;;;;;;;;;5412949;26;20015;-59
2024/04/09 09:06:17;;;;;;;103.93;98.82;;;;;;;;;;5405689;26;20037;-59
2024/04/09 09:08:43;;;;;;;109.82;104.43;;;;;;;;;;5415022;26;20346;-59
2024/04/09 09:11:20;;;;;;;91.28;86.55;;;;;;;;;;5408613;26;20004;-59
2024/04/09 09:13:45;;;;;;;93.85;89.22;;;;;;;;;;5409798;26;20868;-59
2024/04/09 09:16:11;;;;;;;80.78;76.78;;;;;;;;;;5409427;26;20014;-59
2024/04/09 09:18:36;;;;;;;58.10;55.20;;;;;;;;;;5412508;26;20019;-58
2024/04/09 09:21:03;;;;;;;62.92;59.78;;;;;;;;;;5408777;26;20022;-59
2024/04/09 09:23:28;;;;;;;40.92;38.83;;;;;;;;;;5410061;26;20007;-59
2024/04/09 09:25:55;;;;;;;35.72;33.90;;;;;;;;;;5405066;26;20012;-59
2024/04/09 09:28:22;;;;;;;44.22;41.97;;;;;;;;;;5408240;26;20008;-59
2024/04/09 09:30:48;;;;;;;68.60;65.18;;;;;;;;;;5407873;26;20038;-59
2024/04/09 09:33:29;;;;;;;71.63;67.85;;;;;;;;;;5408737;26;20286;-59
2024/04/09 09:35:55;;;;;;;58.67;55.78;;;;;;;;;;5403123;26;20019;-59
2024/04/09 09:38:26;;;;;;;59.20;55.75;;;;;;;;;;5408185;26;20007;-59
2024/04/09 09:40:53;;;;;;;48.47;46.03;;;;;;;;;;5407741;26;20353;-59
2024/04/09 09:43:20;;;;;;;37.80;35.90;;;;;;;;;;5410086;26;20018;-59
2024/04/09 09:45:47;;;;;;;40.03;37.90;;;;;;;;;;5408501;26;20016;-59
2024/04/09 09:48:17;;;;;;;34.38;32.58;;;;;;;;;;5407917;26;20003;-59
2024/04/09 09:50:43;;;;;;;38.58;36.58;;;;;;;;;;5404508;26;20457;-59
2024/04/09 09:53:09;;;;;;;39.55;37.45;;;;;;;;;;5406737;26;20081;-59
2024/04/09 09:55:36;;;;;;;44.50;42.25;;;;;;;;;;5406569;26;20955;-59
2024/04/09 09:58:03;;;;;;;45.70;43.30;;;;;;;;;;5405987;26;20020;-59
2024/04/09 10:00:33;;;;;;;62.25;59.13;;;;;;;;;;5407694;26;20016;-59
2024/04/09 10:02:58;;;;;;;70.25;66.75;;;;;;;;;;5406952;26;20480;-58
2024/04/09 10:05:31;;;;;;;96.35;91.60;;;;;;;;;;5405483;26;20010;-59
2024/04/09 10:07:56;;;;;;;104.80;99.25;;;;;;;;;;5409099;26;20433;-59
2024/04/09 10:10:26;;;;;;;129.70;123.28;;;;;;;;;;5406822;26;20003;-58
2024/04/09 10:12:55;;;;;;;126.20;119.97;;;;;;;;;;5408595;26;20018;-59
2024/04/09 10:15:27;;;;;;;132.68;126.13;;;;;;;;;;5409287;26;20014;-59
2024/04/09 10:17:55;;;;;;;115.72;110.03;;;;;;;;;;5411679;26;20325;-59
2024/04/09 10:20:21;;;;;;;96.38;91.57;;;;;;;;;;5403575;26;20416;-59
2024/04/09 10:22:47;;;;;;;103.60;98.40;;;;;;;;;;5405691;26;20016;-58
2024/04/09 10:25:19;;;;;;;108.55;103.20;;;;;;;;;;5411173;26;20456;-59
2024/04/09 10:27:45;;;;;;;111.68;106.18;;;;;;;;;;5407306;26;20035;-59
2024/04/09 10:30:17;;;;;;;68.40;64.97;;;;;;;;;;5408386;26;20018;-58
2024/04/09 10:33:00;;;;;;;46.60;44.22;;;;;;;;;;5411665;26;20012;-59
2024/04/09 10:35:26;;;;;;;60.92;57.88;;;;;;;;;;5403655;26;19999;-59
2024/04/09 10:37:53;;;;;;;92.45;87.88;;;;;;;;;;5407729;26;20506;-59
2024/04/09 10:40:19;;;;;;;76.70;72.90;;;;;;;;;;5408098;26;20014;-58
2024/04/09 10:42:45;;;;;;;87.43;83.10;;;;;;;;;;5407166;26;20007;-59
2024/04/09 10:45:11;;;;;;;73.07;69.45;;;;;;;;;;5408087;26;20004;-58
2024/04/09 10:47:38;;;;;;;72.30;68.70;;;;;;;;;;5406928;26;20003;-59
2024/04/09 10:50:05;;;;;;;78.90;75.00;;;;;;;;;;5411216;26;20007;-59
2024/04/09 10:52:32;;;;;;;87.28;82.97;;;;;;;;;;5407563;26;20519;-58
2024/04/09 10:55:06;;;;;;;62.10;59.00;;;;;;;;;;5414869;26;20444;-59
2024/04/09 10:57:31;;;;;;;69.97;66.50;;;;;;;;;;5407333;26;20322;-58
2024/04/09 11:00:08;;;;;;;89.60;85.15;;;;;;;;;;5411791;26;20014;-59
2024/04/09 11:02:34;;;;;;;89.05;84.63;;;;;;;;;;5408772;26;20011;-59
2024/04/09 11:04:59;;;;;;;49.33;46.83;;;;;;;;;;5408192;26;20009;-59
2024/04/09 11:07:25;;;;;;;66.32;63.00;;;;;;;;;;5409745;26;20003;-59
2024/04/09 11:09:52;;;;;;;78.00;74.15;;;;;;;;;;5406832;26;20004;-59
2024/04/09 11:12:18;;;;;;;82.32;78.20;;;;;;;;;;5408283;26;20104;-59
2024/04/09 11:14:43;;;;;;;92.50;87.78;;;;;;;;;;5413914;26;20004;-58
2024/04/09 11:17:17;;;;;;;89.97;85.40;;;;;;;;;;5408098;26;20027;-58
2024/04/09 11:19:42;;;;;;;109.63;104.22;;;;;;;;;;5405053;26;20072;-58
2024/04/09 11:22:08;;;;;;;77.03;73.22;;;;;;;;;;5408007;26;20333;-60
2024/04/09 11:24:36;;;;;;;77.22;73.38;;;;;;;;;;5410390;26;20018;-58
2024/04/09 11:27:02;;;;;;;71.43;67.88;;;;;;;;;;5410347;26;20015;-58
2024/04/09 11:29:27;;;;;;;88.55;83.35;;;;;;;;;;5406710;26;20040;-59
2024/04/09 11:31:54;;;;;;;86.03;81.78;;;;;;;;;;5407776;26;20007;-58
2024/04/09 11:34:24;;;;;;;76.95;73.15;;;;;;;;;;5413253;26;20024;-59
2024/04/09 11:36:49;;;;;;;75.97;72.05;;;;;;;;;;5411042;26;20003;-56
2024/04/09 11:39:14;;;;;;;76.18;72.38;;;;;;;;;;5408431;26;20436;-55
2024/04/09 11:41:43;;;;;;;69.15;65.72;;;;;;;;;;5410963;26;20020;-56
2024/04/09 11:44:08;;;;;;;64.95;61.65;;;;;;;;;;5409823;26;20015;-55
2024/04/09 11:46:34;;;;;;;69.05;65.57;;;;;;;;;;5413491;26;20081;-56
2024/04/09 11:48:59;;;;;;;61.17;58.13;;;;;;;;;;5408851;26;20049;-61
2024/04/09 11:51:25;;;;;;;69.70;66.22;;;;;;;;;;5407361;26;20383;-56
2024/04/09 11:53:50;;;;;;;72.93;69.30;;;;;;;;;;5410710;26;20023;-57
2024/04/09 11:56:15;;;;;;;70.97;67.45;;;;;;;;;;5409858;26;20077;-56
2024/04/09 11:58:41;;;;;;;70.47;66.95;;;;;;;;;;5408880;26;20463;-56
2024/04/09 12:01:06;;;;;;;74.97;71.22;;;;;;;;;;5413659;26;20018;-56
2024/04/09 12:03:32;;;;;;;84.25;80.05;;;;;;;;;;5407144;26;20418;-56
2024/04/09 12:05:58;;;;;;;79.32;75.40;;;;;;;;;;5408418;26;20076;-56
2024/04/09 12:08:23;;;;;;;86.50;82.20;;;;;;;;;;5416605;26;20717;-56
2024/04/09 12:10:48;;;;;;;81.57;77.50;;;;;;;;;;5410959;26;20008;-57
2024/04/09 12:13:15;;;;;;;92.63;88.07;;;;;;;;;;5410939;26;20015;-55
2024/04/09 12:15:40;;;;;;;82.28;78.07;;;;;;;;;;5405745;26;20076;-57
2024/04/09 12:18:06;;;;;;;100.60;95.68;;;;;;;;;;5410166;26;20040;-57
2024/04/09 12:20:31;;;;;;;93.30;88.70;;;;;;;;;;5407544;26;20003;-56
2024/04/09 12:22:57;;;;;;;94.50;89.80;;;;;;;;;;5409143;26;20026;-56
2024/04/09 12:25:23;;;;;;;87.07;82.78;;;;;;;;;;5410486;26;20008;-56
2024/04/09 12:27:48;;;;;;;84.13;79.93;;;;;;;;;;5409007;26;20433;-56
2024/04/09 12:30:15;;;;;;;80.28;76.07;;;;;;;;;;5411549;26;19999;-57
2024/04/09 12:32:41;;;;;;;73.53;69.88;;;;;;;;;;5404955;26;20405;-55
2024/04/09 12:35:06;;;;;;;85.55;81.32;;;;;;;;;;5412141;26;20019;-57
2024/04/09 12:37:32;;;;;;;88.20;83.82;;;;;;;;;;5406285;26;20325;-56
2024/04/09 12:39:57;;;;;;;90.85;86.35;;;;;;;;;;5406056;26;20066;-57
2024/04/09 12:42:22;;;;;;;95.88;91.15;;;;;;;;;;5406101;26;20071;-57
2024/04/09 12:44:48;;;;;;;101.05;96.03;;;;;;;;;;5404876;26;20527;-57
2024/04/09 12:47:16;;;;;;;98.78;93.82;;;;;;;;;;5407658;26;19996;-56
2024/04/09 12:49:41;;;;;;;109.28;103.70;;;;;;;;;;5375602;26;20011;-57
2024/04/09 12:52:08;;;;;;;110.80;105.32;;;;;;;;;;5406348;26;20040;-56
2024/04/09 12:54:33;;;;;;;107.47;102.10;;;;;;;;;;5411567;26;20003;-58
2024/04/09 12:57:00;;;;;;;105.43;100.22;;;;;;;;;;5406323;26;20019;-57
2024/04/09 12:59:36;;;;;;;104.00;98.85;;;;;;;;;;5411324;26;20610;-58
2024/04/09 13:02:07;;;;;;;108.90;103.53;;;;;;;;;;5409395;26;20018;-58
2024/04/09 13:04:33;;;;;;;104.00;98.85;;;;;;;;;;5407476;26;20011;-58
2024/04/09 13:06:58;;;;;;;114.72;109.05;;;;;;;;;;5410333;26;20014;-58
2024/04/09 13:09:24;;;;;;;113.15;107.40;;;;;;;;;;5410160;26;20317;-57
2024/04/09 13:11:50;;;;;;;124.55;118.30;;;;;;;;;;5405600;26;20023;-55
2024/04/09 13:14:16;;;;;;;125.70;119.47;;;;;;;;;;5409457;26;20006;-57
2024/04/09 13:16:42;;;;;;;134.80;128.15;;;;;;;;;;5406707;26;20008;-57
2024/04/09 13:19:07;;;;;;;119.10;113.10;;;;;;;;;;5411258;26;20075;-56
2024/04/09 13:21:32;;;;;;;118.32;112.47;;;;;;;;;;5410338;26;20422;-56
2024/04/09 13:23:58;;;;;;;115.90;110.15;;;;;;;;;;5409396;26;20007;-57
2024/04/09 13:26:23;;;;;;;114.20;108.53;;;;;;;;;;5408071;26;20022;-54
2024/04/09 13:28:49;;;;;;;114.78;109.13;;;;;;;;;;5409336;26;20067;-56
2024/04/09 13:31:15;;;;;;;112.25;106.70;;;;;;;;;;5405559;26;20775;-58
2024/04/09 13:33:41;;;;;;;118.07;112.25;;;;;;;;;;5407349;26;20113;-57
2024/04/09 13:36:06;;;;;;;116.28;110.53;;;;;;;;;;5409136;26;19999;-56
2024/04/09 13:38:32;;;;;;;121.57;115.53;;;;;;;;;;5411533;26;20040;-57
2024/04/09 13:40:57;;;;;;;122.10;116.07;;;;;;;;;;5407548;26;20027;-57
2024/04/09 13:43:22;;;;;;;120.90;114.82;;;;;;;;;;5407228;26;20017;-57
2024/04/09 13:45:51;;;;;;;121.70;115.68;;;;;;;;;;5408995;26;20014;-57
2024/04/09 13:48:16;;;;;;;117.40;111.47;;;;;;;;;;5411042;26;20090;-57
2024/04/09 13:50:42;;;;;;;124.60;118.43;;;;;;;;;;5407700;26;20430;-57
2024/04/09 13:53:07;;;;;;;133.38;126.80;;;;;;;;;;5409008;26;20011;-56
2024/04/09 13:55:33;;;;;;;135.60;128.90;;;;;;;;;;5408468;26;20148;-56
2024/04/09 13:57:59;;;;;;;128.82;122.40;;;;;;;;;;5404299;26;20007;-57
2024/04/09 14:00:28;;;;;;;130.77;124.32;;;;;;;;;;5408179;26;20440;-57